Webcam

2024/07/22 19:20 EBBR 221920Z 20005KT 9999 FEW043 22/15 Q1018 NOSIG

Webcam

--- Refresh now ---